createdAt,value
2018-06-23T00:00:59.849Z,11.57
2018-06-23T00:01:59.845Z,11.52
2018-06-23T00:02:59.833Z,11.55
2018-06-23T00:03:59.819Z,11.55
2018-06-23T00:04:59.805Z,11.55
2018-06-23T00:05:59.802Z,11.52
2018-06-23T00:06:59.788Z,11.48
2018-06-23T00:07:59.807Z,11.36
2018-06-23T00:08:59.769Z,11.37
2018-06-23T00:09:59.750Z,11.36
2018-06-23T00:10:59.742Z,11.40
2018-06-23T00:11:59.731Z,11.40
2018-06-23T00:12:59.717Z,11.41
2018-06-23T00:13:59.715Z,11.44
2018-06-23T00:14:59.704Z,11.36
2018-06-23T00:15:59.690Z,11.45
2018-06-23T00:16:59.681Z,11.44
2018-06-23T00:17:59.664Z,11.40
2018-06-23T00:18:59.683Z,11.37
2018-06-23T00:19:59.646Z,11.43
2018-06-23T00:20:59.638Z,11.30
2018-06-23T00:21:59.620Z,11.40
2018-06-23T00:22:59.616Z,11.41
2018-06-23T00:23:59.600Z,11.25
2018-06-23T00:24:59.590Z,11.29
2018-06-23T00:25:59.582Z,11.22
2018-06-23T00:26:59.571Z,11.19
2018-06-23T00:27:59.559Z,11.18
2018-06-23T00:28:59.551Z,11.10
2018-06-23T00:29:59.534Z,11.07
2018-06-23T00:30:59.523Z,11.04
2018-06-23T00:31:59.514Z,10.86
2018-06-23T00:32:59.500Z,10.96
2018-06-23T00:33:59.497Z,10.90
2018-06-23T00:34:59.486Z,10.93
2018-06-23T00:35:59.471Z,10.84
2018-06-23T00:36:59.458Z,10.82
2018-06-23T00:37:59.460Z,10.86
2018-06-23T00:38:59.441Z,10.78
2018-06-23T00:39:59.457Z,10.89
2018-06-23T00:40:59.421Z,10.81
2018-06-23T00:41:59.404Z,10.84
2018-06-23T00:42:59.392Z,10.90
2018-06-23T00:43:59.384Z,10.92
2018-06-23T00:44:59.371Z,10.97
2018-06-23T00:45:59.370Z,10.87
2018-06-23T00:46:59.356Z,10.96
2018-06-23T00:47:59.346Z,10.92
2018-06-23T00:48:59.336Z,10.81
2018-06-23T00:49:59.320Z,10.79
2018-06-23T00:50:59.313Z,10.84
2018-06-23T00:51:59.302Z,10.81
2018-06-23T00:52:59.293Z,10.72
2018-06-23T00:53:59.276Z,10.63
2018-06-23T00:54:59.267Z,10.78
2018-06-23T00:55:59.284Z,10.72
2018-06-23T00:56:59.243Z,10.67
2018-06-23T00:57:59.239Z,10.68
2018-06-23T00:58:59.226Z,10.67
2018-06-23T00:59:59.216Z,10.61
2018-06-23T01:00:59.207Z,10.54
2018-06-23T01:01:59.193Z,10.51
2018-06-23T01:02:59.180Z,10.51
2018-06-23T01:03:59.171Z,10.51
2018-06-23T01:04:59.158Z,10.57
2018-06-23T01:05:59.154Z,10.46
2018-06-23T01:06:59.144Z,10.53
2018-06-23T01:07:59.128Z,10.49
2018-06-23T01:08:59.115Z,10.38
2018-06-23T01:09:59.113Z,10.42
2018-06-23T01:10:59.099Z,10.46
2018-06-23T01:11:59.115Z,10.31
2018-06-23T01:12:59.080Z,10.30
2018-06-23T01:13:59.065Z,10.31
2018-06-23T01:14:59.053Z,10.30
2018-06-23T01:15:59.042Z,10.37
2018-06-23T01:16:59.030Z,10.38
2018-06-23T01:17:59.028Z,10.44
2018-06-23T01:18:59.013Z,10.48
2018-06-23T01:19:59.003Z,10.44
2018-06-23T01:20:58.994Z,10.46
2018-06-23T01:21:58.976Z,10.59
2018-06-23T01:22:59.025Z,10.63
2018-06-23T01:23:58.959Z,10.72
2018-06-23T01:24:58.954Z,10.74
2018-06-23T01:25:58.933Z,10.76
2018-06-23T01:26:58.924Z,10.81
2018-06-23T01:27:58.934Z,10.75
2018-06-23T01:28:58.903Z,10.75
2018-06-23T01:29:58.897Z,10.74
2018-06-23T01:30:58.883Z,10.72
2018-06-23T01:31:58.873Z,10.74
2018-06-23T01:32:58.892Z,10.79
2018-06-23T01:33:58.847Z,10.76
2018-06-23T01:34:58.839Z,10.78
2018-06-23T01:35:58.829Z,10.76
2018-06-23T01:36:58.814Z,10.78
2018-06-23T01:37:58.810Z,10.74
2018-06-23T01:38:58.800Z,10.76
2018-06-23T01:39:58.790Z,10.76
2018-06-23T01:40:58.778Z,10.67
2018-06-23T01:41:58.762Z,10.68
2018-06-23T01:42:58.753Z,10.75
2018-06-23T01:43:58.746Z,10.72
2018-06-23T01:44:58.730Z,10.75
2018-06-23T01:45:58.725Z,10.68
2018-06-23T01:46:58.715Z,10.72
2018-06-23T01:47:58.702Z,10.74
2018-06-23T01:48:58.693Z,10.69
2018-06-23T01:49:58.704Z,10.71
2018-06-23T01:50:58.676Z,10.71
2018-06-23T01:51:58.659Z,10.81
2018-06-23T01:52:58.643Z,10.75
2018-06-23T01:53:58.640Z,10.84
2018-06-23T01:54:58.626Z,10.78
2018-06-23T01:55:58.616Z,10.71
2018-06-23T01:56:58.601Z,10.75
2018-06-23T01:57:58.596Z,10.81
2018-06-23T01:58:58.586Z,10.86
2018-06-23T01:59:58.574Z,10.75
2018-06-23T02:00:58.585Z,10.82
2018-06-23T02:01:58.547Z,10.78
2018-06-23T02:02:58.537Z,10.76
2018-06-23T02:03:58.528Z,10.89
2018-06-23T02:04:58.517Z,10.82
2018-06-23T02:05:58.541Z,10.74
2018-06-23T02:06:58.500Z,10.75
2018-06-23T02:07:58.487Z,10.81
2018-06-23T02:08:58.481Z,10.75
2018-06-23T02:09:58.461Z,10.75
2018-06-23T02:10:58.454Z,10.76
2018-06-23T02:11:58.446Z,10.84
2018-06-23T02:12:58.436Z,10.72
2018-06-23T02:13:58.419Z,10.81
2018-06-23T02:14:58.409Z,10.75
2018-06-23T02:15:58.399Z,10.71
2018-06-23T02:16:58.406Z,10.72
2018-06-23T02:17:58.382Z,10.76
2018-06-23T02:18:58.370Z,10.69
2018-06-23T02:19:58.358Z,10.74
2018-06-23T02:20:58.351Z,10.64
2018-06-23T02:21:58.361Z,10.68
2018-06-23T02:22:58.324Z,10.78
2018-06-23T02:23:58.316Z,10.72
2018-06-23T02:24:58.301Z,10.72
2018-06-23T02:25:58.298Z,10.68
2018-06-23T02:26:58.285Z,10.72
2018-06-23T02:27:58.273Z,10.67
2018-06-23T02:28:58.258Z,10.74
2018-06-23T02:29:58.255Z,10.61
2018-06-23T02:30:58.242Z,10.74
2018-06-23T02:31:58.236Z,10.74
2018-06-23T02:32:58.226Z,10.75
2018-06-23T02:33:58.207Z,10.72
2018-06-23T02:34:58.196Z,10.69
2018-06-23T02:35:58.192Z,10.75
2018-06-23T02:36:58.173Z,10.74
2018-06-23T02:37:58.171Z,10.74
2018-06-23T02:38:58.157Z,10.71
2018-06-23T02:39:58.145Z,10.74
2018-06-23T02:40:58.137Z,10.71
2018-06-23T02:41:58.119Z,10.68
2018-06-23T02:42:58.131Z,10.67
2018-06-23T02:43:58.104Z,10.67
2018-06-23T02:44:58.093Z,10.57
2018-06-23T02:45:58.077Z,10.51
2018-06-23T02:46:58.068Z,10.54
2018-06-23T02:47:58.088Z,10.56
2018-06-23T02:48:58.046Z,10.48
2018-06-23T02:49:58.041Z,10.59
2018-06-23T02:50:58.027Z,10.53
2018-06-23T02:51:58.017Z,10.44
2018-06-23T02:52:58.010Z,10.38
2018-06-23T02:53:57.993Z,10.40
2018-06-23T02:54:57.983Z,10.40
2018-06-23T02:55:57.974Z,10.30
2018-06-23T02:56:57.963Z,10.31
2018-06-23T02:57:57.957Z,10.37
2018-06-23T02:58:57.970Z,10.31
2018-06-23T02:59:57.929Z,10.26
2018-06-23T03:00:57.920Z,10.19
2018-06-23T03:01:57.961Z,10.17
2018-06-23T03:02:57.899Z,10.17
2018-06-23T03:03:57.939Z,10.20
2018-06-23T03:04:57.933Z,10.12
2018-06-23T03:05:57.917Z,10.17
2018-06-23T03:06:57.905Z,10.20
2018-06-23T03:07:57.848Z,10.17
2018-06-23T03:08:57.832Z,10.22
2018-06-23T03:09:57.846Z,10.13
2018-06-23T03:10:57.815Z,10.19
2018-06-23T03:11:57.806Z,10.22
2018-06-23T03:12:57.795Z,10.19
2018-06-23T03:13:57.780Z,10.16
2018-06-23T03:14:57.795Z,10.17
2018-06-23T03:15:57.761Z,10.16
2018-06-23T03:16:57.754Z,10.20
2018-06-23T03:17:57.736Z,10.23
2018-06-23T03:18:57.726Z,10.16
2018-06-23T03:19:57.718Z,10.20
2018-06-23T03:20:57.705Z,10.22
2018-06-23T03:21:57.704Z,10.22
2018-06-23T03:22:57.687Z,10.22
2018-06-23T03:23:57.676Z,10.22
2018-06-23T03:24:57.666Z,10.15
2018-06-23T03:25:57.675Z,10.17
2018-06-23T03:26:57.641Z,10.12
2018-06-23T03:27:57.630Z,10.07
2018-06-23T03:28:57.625Z,10.04
2018-06-23T03:29:57.613Z,10.04
2018-06-23T03:30:57.601Z,10.02
2018-06-23T03:31:57.590Z,9.97
2018-06-23T03:32:57.583Z,10.04
2018-06-23T03:33:57.596Z,9.91
2018-06-23T03:34:57.560Z,9.95
2018-06-23T03:35:57.547Z,9.84
2018-06-23T03:36:57.569Z,9.77
2018-06-23T03:37:57.521Z,9.73
2018-06-23T03:38:57.512Z,9.69
2018-06-23T03:39:57.507Z,9.56
2018-06-23T03:40:57.493Z,9.68
2018-06-23T03:41:57.482Z,9.58
2018-06-23T03:42:57.469Z,9.66
2018-06-23T03:43:57.460Z,9.55
2018-06-23T03:44:57.447Z,9.68
2018-06-23T03:45:57.439Z,9.62
2018-06-23T03:46:57.435Z,9.55
2018-06-23T03:47:57.419Z,9.61
2018-06-23T03:48:57.408Z,9.56
2018-06-23T03:49:57.397Z,9.55
2018-06-23T03:50:57.387Z,9.51
2018-06-23T03:51:57.376Z,9.48
2018-06-23T03:52:57.391Z,9.48
2018-06-23T03:53:57.348Z,9.62
2018-06-23T03:54:57.341Z,9.50
2018-06-23T03:55:57.327Z,9.61
2018-06-23T03:56:57.317Z,9.58
2018-06-23T03:57:57.308Z,9.48
2018-06-23T03:58:57.303Z,9.55
2018-06-23T03:59:57.289Z,9.46
2018-06-23T04:00:57.279Z,9.48
2018-06-23T04:01:57.267Z,9.46
2018-06-23T04:02:57.257Z,9.46
2018-06-23T04:03:57.267Z,9.47
2018-06-23T04:04:57.233Z,9.50
2018-06-23T04:05:57.221Z,9.43
2018-06-23T04:06:57.212Z,9.48
2018-06-23T04:07:57.195Z,9.41
2018-06-23T04:08:57.224Z,9.46
2018-06-23T04:09:57.179Z,9.54
2018-06-23T04:10:57.171Z,9.50
2018-06-23T04:11:57.182Z,9.58
2018-06-23T04:12:57.147Z,9.56
2018-06-23T04:13:57.133Z,9.64
2018-06-23T04:14:57.124Z,9.69
2018-06-23T04:15:57.113Z,9.72
2018-06-23T04:16:57.101Z,9.80
2018-06-23T04:17:57.093Z,9.82
2018-06-23T04:18:57.087Z,10.01
2018-06-23T04:19:57.096Z,10.02
2018-06-23T04:20:57.073Z,10.07
2018-06-23T04:21:57.090Z,10.10
2018-06-23T04:22:57.044Z,10.15
2018-06-23T04:23:57.031Z,10.10
2018-06-23T04:24:57.037Z,10.20
2018-06-23T04:25:57.007Z,10.17
2018-06-23T04:26:56.991Z,10.30
2018-06-23T04:27:56.980Z,10.31
2018-06-23T04:28:56.972Z,10.25
2018-06-23T04:29:56.983Z,10.28
2018-06-23T04:30:56.956Z,10.33
2018-06-23T04:31:56.945Z,10.38
2018-06-23T04:32:56.932Z,10.30
2018-06-23T04:33:56.919Z,10.38
2018-06-23T04:34:56.928Z,10.30
2018-06-23T04:35:56.904Z,10.40
2018-06-23T04:36:56.890Z,10.38
2018-06-23T04:37:56.876Z,10.35
2018-06-23T04:38:56.863Z,10.44
2018-06-23T04:39:56.872Z,10.46
2018-06-23T04:40:56.846Z,10.49
2018-06-23T04:41:56.836Z,10.54
2018-06-23T04:42:56.828Z,10.49
2018-06-23T04:43:56.816Z,10.59
2018-06-23T04:44:56.824Z,10.64
2018-06-23T04:45:56.791Z,10.60
2018-06-23T04:46:56.777Z,10.69
2018-06-23T04:47:56.766Z,10.72
2018-06-23T04:48:56.759Z,10.75
2018-06-23T04:49:56.770Z,10.79
2018-06-23T04:50:56.741Z,10.74
2018-06-23T04:51:56.723Z,10.72
2018-06-23T04:52:56.717Z,10.71
2018-06-23T04:53:56.706Z,10.76
2018-06-23T04:54:56.726Z,10.67
2018-06-23T04:55:56.687Z,10.71
2018-06-23T04:56:56.676Z,10.74
2018-06-23T04:57:56.711Z,10.76
2018-06-23T04:58:56.656Z,10.76
2018-06-23T04:59:56.638Z,10.76
2018-06-23T05:00:56.631Z,10.78
2018-06-23T05:01:56.620Z,10.87
2018-06-23T05:02:56.611Z,10.92
2018-06-23T05:03:56.601Z,10.92
2018-06-23T05:04:56.587Z,10.96
2018-06-23T05:05:56.608Z,11.05
2018-06-23T05:06:56.583Z,11.04
2018-06-23T05:07:56.558Z,11.05
2018-06-23T05:08:56.546Z,11.07
2018-06-23T05:09:56.531Z,11.18
2018-06-23T05:10:56.520Z,11.15
2018-06-23T05:11:56.511Z,11.18
2018-06-23T05:12:56.501Z,11.15
2018-06-23T05:13:56.491Z,11.10
2018-06-23T05:14:56.481Z,11.15
2018-06-23T05:15:56.500Z,11.23
2018-06-23T05:16:56.457Z,11.17
2018-06-23T05:17:56.445Z,11.23
2018-06-23T05:18:56.430Z,11.27
2018-06-23T05:19:56.421Z,11.23
2018-06-23T05:20:56.411Z,11.30
2018-06-23T05:21:56.406Z,11.36
2018-06-23T05:22:56.394Z,11.40
2018-06-23T05:23:56.378Z,11.40
2018-06-23T05:24:56.370Z,11.43
2018-06-23T05:25:56.435Z,11.35
2018-06-23T05:26:56.466Z,11.43
2018-06-23T05:27:56.341Z,11.45
2018-06-23T05:28:56.329Z,11.37
2018-06-23T05:29:56.341Z,11.40
2018-06-23T05:30:56.302Z,11.40
2018-06-23T05:31:56.290Z,11.45
2018-06-23T05:32:56.285Z,11.36
2018-06-23T05:33:56.273Z,11.44
2018-06-23T05:34:56.271Z,11.47
2018-06-23T05:35:56.255Z,11.62
2018-06-23T05:36:56.244Z,11.62
2018-06-23T05:37:56.230Z,11.65
2018-06-23T05:38:56.219Z,11.70
2018-06-23T05:39:56.211Z,11.72
2018-06-23T05:40:56.200Z,11.78
2018-06-23T05:41:56.185Z,11.70
2018-06-23T05:42:56.175Z,11.75
2018-06-23T05:43:56.164Z,11.65
2018-06-23T05:44:56.153Z,11.57
2018-06-23T05:45:56.147Z,11.57
2018-06-23T05:46:56.143Z,11.57
2018-06-23T05:47:56.128Z,11.52
2018-06-23T05:48:56.116Z,11.54
2018-06-23T05:49:56.099Z,11.50
2018-06-23T05:50:56.089Z,11.52
2018-06-23T05:51:56.080Z,11.52
2018-06-23T05:52:56.109Z,11.51
2018-06-23T05:53:56.077Z,11.45
2018-06-23T05:54:56.058Z,11.55
2018-06-23T05:55:56.038Z,11.55
2018-06-23T05:56:56.026Z,11.57
2018-06-23T05:57:56.016Z,11.50
2018-06-23T05:58:56.014Z,11.50
2018-06-23T05:59:56.001Z,11.52
2018-06-23T06:00:55.983Z,11.41
2018-06-23T06:01:55.970Z,11.44
2018-06-23T06:02:55.957Z,11.41
2018-06-23T06:03:55.948Z,11.35
2018-06-23T06:04:55.939Z,11.37
2018-06-23T06:05:55.929Z,11.33
2018-06-23T06:06:56.015Z,11.43
2018-06-23T06:07:55.911Z,11.48
2018-06-23T06:08:55.925Z,11.43
2018-06-23T06:09:55.884Z,11.41
2018-06-23T06:10:55.871Z,11.37
2018-06-23T06:11:55.870Z,11.32
2018-06-23T06:12:55.862Z,11.25
2018-06-23T06:13:55.840Z,11.23
2018-06-23T06:14:55.829Z,11.23
2018-06-23T06:15:55.816Z,11.19
2018-06-23T06:16:55.808Z,11.19
2018-06-23T06:17:55.803Z,11.22
2018-06-23T06:18:55.797Z,11.23
2018-06-23T06:19:55.809Z,11.18
2018-06-23T06:20:55.767Z,11.22
2018-06-23T06:21:55.755Z,11.19
2018-06-23T06:22:55.741Z,11.25
2018-06-23T06:23:55.732Z,11.30
2018-06-23T06:24:55.731Z,11.32
2018-06-23T06:25:55.716Z,11.23
2018-06-23T06:26:55.708Z,11.27
2018-06-23T06:27:55.688Z,11.19
2018-06-23T06:28:55.680Z,11.15
2018-06-23T06:29:55.678Z,11.07
2018-06-23T06:30:55.665Z,10.99
2018-06-23T06:31:55.657Z,11.00
2018-06-23T06:32:55.639Z,10.97
2018-06-23T06:33:55.625Z,10.86
2018-06-23T06:34:55.613Z,10.79
2018-06-23T06:35:55.604Z,10.81
2018-06-23T06:36:55.594Z,10.82
2018-06-23T06:37:55.601Z,10.75
2018-06-23T06:38:55.615Z,10.87
2018-06-23T06:39:55.571Z,10.79
2018-06-23T06:40:55.577Z,10.84
2018-06-23T06:41:55.540Z,10.79
2018-06-23T06:42:55.530Z,10.78
2018-06-23T06:43:55.521Z,10.76
2018-06-23T06:44:55.508Z,10.86
2018-06-23T06:45:55.499Z,11.12
2018-06-23T06:46:55.486Z,11.19
2018-06-23T06:47:55.470Z,11.17
2018-06-23T06:48:55.463Z,11.22
2018-06-23T06:49:55.454Z,11.15
2018-06-23T06:50:55.508Z,11.07
2018-06-23T06:51:55.453Z,11.17
2018-06-23T06:52:55.421Z,11.22
2018-06-23T06:53:55.410Z,11.40
2018-06-23T06:54:55.397Z,11.54
2018-06-23T06:55:55.384Z,11.78
2018-06-23T06:56:55.401Z,11.83
2018-06-23T06:57:55.369Z,11.91
2018-06-23T06:58:55.359Z,11.88
2018-06-23T06:59:55.341Z,11.83
2018-06-23T07:00:55.333Z,11.95
2018-06-23T07:01:55.325Z,12.18
2018-06-23T07:02:55.318Z,12.37
2018-06-23T07:03:55.306Z,12.39
2018-06-23T07:04:55.292Z,12.45
2018-06-23T07:05:55.287Z,12.43
2018-06-23T07:06:55.266Z,12.47
2018-06-23T07:07:55.279Z,12.62
2018-06-23T07:08:55.291Z,12.35
2018-06-23T07:09:55.241Z,12.36
2018-06-23T07:10:55.231Z,12.36
2018-06-23T07:11:55.303Z,12.40
2018-06-23T07:12:55.224Z,12.60
2018-06-23T07:13:55.193Z,12.64
2018-06-23T07:14:55.186Z,12.72
2018-06-23T07:15:55.178Z,12.97
2018-06-23T07:16:55.166Z,13.19
2018-06-23T07:17:55.176Z,13.27
2018-06-23T07:18:55.141Z,13.18
2018-06-23T07:19:55.127Z,13.05
2018-06-23T07:20:55.117Z,13.03
2018-06-23T07:21:55.108Z,12.80
2018-06-23T07:22:55.103Z,12.86
2018-06-23T07:23:55.196Z,12.87
2018-06-23T07:24:55.081Z,12.90
2018-06-23T07:25:55.072Z,12.85
2018-06-23T07:26:55.110Z,13.01
2018-06-23T07:27:55.041Z,13.03
2018-06-23T07:28:55.058Z,13.25
2018-06-23T07:29:55.067Z,13.25
2018-06-23T07:30:55.034Z,13.19
2018-06-23T07:31:54.998Z,13.44
2018-06-23T07:32:54.993Z,13.47
2018-06-23T07:33:55.006Z,13.49
2018-06-23T07:34:55.070Z,13.52
2018-06-23T07:35:54.962Z,13.63
2018-06-23T07:36:54.952Z,13.70
2018-06-23T07:37:54.944Z,13.79
2018-06-23T07:38:54.926Z,13.99
2018-06-23T07:39:54.914Z,13.96
2018-06-23T07:40:54.904Z,14.07
2018-06-23T07:41:54.895Z,14.10
2018-06-23T07:42:54.886Z,14.08
2018-06-23T07:43:54.878Z,14.10
2018-06-23T07:44:54.889Z,14.28
2018-06-23T07:45:54.854Z,14.55
2018-06-23T07:46:54.835Z,14.79
2018-06-23T07:47:54.832Z,14.91
2018-06-23T07:48:54.825Z,14.99
2018-06-23T07:49:54.806Z,15.10
2018-06-23T07:50:54.796Z,15.14
2018-06-23T07:51:54.781Z,15.06
2018-06-23T07:52:54.773Z,14.92
2018-06-23T07:53:54.774Z,14.79
2018-06-23T07:54:54.756Z,14.55
2018-06-23T07:55:54.755Z,14.73
2018-06-23T07:56:54.742Z,14.94
2018-06-23T07:57:54.717Z,14.84
2018-06-23T07:58:54.709Z,14.53
2018-06-23T07:59:54.697Z,14.44
2018-06-23T08:00:54.710Z,14.35
2018-06-23T08:01:54.683Z,14.37
2018-06-23T08:02:54.667Z,14.43
2018-06-23T08:03:54.656Z,14.48
2018-06-23T08:04:54.641Z,14.44
2018-06-23T08:05:54.642Z,14.55
2018-06-23T08:06:54.626Z,14.70
2018-06-23T08:07:54.614Z,14.88
2018-06-23T08:08:54.604Z,14.82
2018-06-23T08:09:54.589Z,14.65
2018-06-23T08:10:54.580Z,14.77
2018-06-23T08:11:54.597Z,14.70
2018-06-23T08:12:54.575Z,14.82
2018-06-23T08:13:54.557Z,15.00
2018-06-23T08:14:54.554Z,14.92
2018-06-23T08:15:54.527Z,15.09
2018-06-23T08:16:54.521Z,15.11
2018-06-23T08:17:54.502Z,14.94
2018-06-23T08:18:54.493Z,15.03
2018-06-23T08:19:54.484Z,14.99
2018-06-23T08:20:54.475Z,15.02
2018-06-23T08:21:54.459Z,14.99
2018-06-23T08:22:54.455Z,15.10
2018-06-23T08:23:54.441Z,15.35
2018-06-23T08:24:54.444Z,15.46
2018-06-23T08:25:54.424Z,15.37
2018-06-23T08:26:54.412Z,15.28
2018-06-23T08:27:54.416Z,15.33
2018-06-23T08:28:54.389Z,15.28
2018-06-23T08:29:54.377Z,15.19
2018-06-23T08:30:54.362Z,15.19
2018-06-23T08:31:54.364Z,15.49
2018-06-23T08:32:54.363Z,15.95
2018-06-23T08:33:54.337Z,15.76
2018-06-23T08:34:54.324Z,15.68
2018-06-23T08:35:54.311Z,16.15
2018-06-23T08:36:54.297Z,15.94
2018-06-23T08:37:54.313Z,15.95
2018-06-23T08:38:54.281Z,16.13
2018-06-23T08:39:54.270Z,16.89
2018-06-23T08:40:54.262Z,17.33
2018-06-23T08:41:54.244Z,17.56
2018-06-23T08:42:54.255Z,17.87
2018-06-23T08:43:54.234Z,18.00
2018-06-23T08:44:54.212Z,17.83
2018-06-23T08:45:54.209Z,18.01
2018-06-23T08:46:54.196Z,18.15
2018-06-23T08:47:54.205Z,18.05
2018-06-23T08:48:54.177Z,17.80
2018-06-23T08:49:54.160Z,17.49
2018-06-23T08:50:54.153Z,17.39
2018-06-23T08:51:54.146Z,17.49
2018-06-23T08:52:54.155Z,17.76
2018-06-23T08:53:54.118Z,17.86
2018-06-23T08:54:54.110Z,18.45
2018-06-23T08:55:54.100Z,19.18
2018-06-23T08:56:54.131Z,19.63
2018-06-23T08:57:54.113Z,19.44
2018-06-23T08:58:54.072Z,19.11
2018-06-23T08:59:54.061Z,18.68
2018-06-23T09:00:54.071Z,17.89
2018-06-23T09:01:54.205Z,17.57
2018-06-23T09:02:54.064Z,17.27
2018-06-23T09:03:54.019Z,17.09
2018-06-23T09:04:54.005Z,16.61
2018-06-23T09:05:54.000Z,16.46
2018-06-23T09:06:53.987Z,16.54
2018-06-23T09:07:53.974Z,16.54
2018-06-23T09:08:53.986Z,16.91
2018-06-23T09:09:53.956Z,17.52
2018-06-23T09:10:53.944Z,17.42
2018-06-23T09:11:53.935Z,17.41
2018-06-23T09:12:53.924Z,17.39
2018-06-23T09:13:53.907Z,17.27
2018-06-23T09:14:53.900Z,17.06
2018-06-23T09:15:53.887Z,16.89
2018-06-23T09:16:53.884Z,17.60
2018-06-23T09:17:53.872Z,18.28
2018-06-23T09:18:53.858Z,18.92
2018-06-23T09:19:53.855Z,19.47
2018-06-23T09:20:53.842Z,19.84
2018-06-23T09:21:53.822Z,20.13
2018-06-23T09:22:53.816Z,20.67
2018-06-23T09:23:53.807Z,21.12
2018-06-23T09:24:53.817Z,21.17
2018-06-23T09:25:53.880Z,21.27
2018-06-23T09:26:53.773Z,21.24
2018-06-23T09:27:53.763Z,20.92
2018-06-23T09:28:53.753Z,20.39
2018-06-23T09:29:53.776Z,19.71
2018-06-23T09:30:53.737Z,18.96
2018-06-23T09:31:53.728Z,18.49
2018-06-23T09:32:53.715Z,18.00
2018-06-23T09:33:53.700Z,17.42
2018-06-23T09:34:53.699Z,17.12
2018-06-23T09:35:53.703Z,16.97
2018-06-23T09:36:53.667Z,17.83
2018-06-23T09:37:53.667Z,18.66
2018-06-23T09:38:53.652Z,19.40
2018-06-23T09:39:53.641Z,20.03
2018-06-23T09:40:53.628Z,20.44
2018-06-23T09:41:53.623Z,20.93
2018-06-23T09:42:53.611Z,21.29
2018-06-23T09:43:53.601Z,21.66
2018-06-23T09:44:53.592Z,22.04
2018-06-23T09:45:53.615Z,22.22
2018-06-23T09:46:53.566Z,22.66
2018-06-23T09:47:53.558Z,22.55
2018-06-23T09:48:53.550Z,22.00
2018-06-23T09:49:53.558Z,21.46
2018-06-23T09:50:53.544Z,20.97
2018-06-23T09:51:53.516Z,20.47
2018-06-23T09:52:53.508Z,20.21
2018-06-23T09:53:53.491Z,19.84
2018-06-23T09:54:53.500Z,19.58
2018-06-23T09:55:53.480Z,19.02
2018-06-23T09:56:53.466Z,18.73
2018-06-23T09:57:53.448Z,18.28
2018-06-23T09:58:53.441Z,18.15
2018-06-23T09:59:53.455Z,18.00
2018-06-23T10:00:53.416Z,17.92
2018-06-23T10:01:53.412Z,17.71
2018-06-23T10:02:53.400Z,17.44
2018-06-23T10:03:53.390Z,17.33
2018-06-23T10:04:53.380Z,17.14
2018-06-23T10:05:53.365Z,17.22
2018-06-23T10:06:53.355Z,17.70
2018-06-23T10:07:53.344Z,18.10
2018-06-23T10:08:53.331Z,18.47
2018-06-23T10:09:53.333Z,19.12
2018-06-23T10:10:53.351Z,19.54
2018-06-23T10:11:53.306Z,19.55
2018-06-23T10:12:53.289Z,19.45
2018-06-23T10:13:53.285Z,19.37
2018-06-23T10:14:53.272Z,19.12
2018-06-23T10:15:53.272Z,18.81
2018-06-23T10:16:53.295Z,18.56
2018-06-23T10:17:53.252Z,18.34
2018-06-23T10:18:53.229Z,18.20
2018-06-23T10:19:53.217Z,18.15
2018-06-23T10:20:53.203Z,18.38
2018-06-23T10:21:53.208Z,18.71
2018-06-23T10:22:53.191Z,19.18
2018-06-23T10:23:53.177Z,19.69
2018-06-23T10:24:53.171Z,19.94
2018-06-23T10:25:53.151Z,20.16
2018-06-23T10:26:53.234Z,20.11
2018-06-23T10:27:53.136Z,19.94
2018-06-23T10:28:53.126Z,19.62
2018-06-23T10:29:53.116Z,19.33
2018-06-23T10:30:53.100Z,19.30
2018-06-23T10:31:53.090Z,19.18
2018-06-23T10:32:53.081Z,19.00
2018-06-23T10:33:53.074Z,19.02
2018-06-23T10:34:53.062Z,19.14
2018-06-23T10:35:53.075Z,18.90
2018-06-23T10:36:53.079Z,18.59
2018-06-23T10:37:53.026Z,18.43
2018-06-23T10:38:53.016Z,18.29
2018-06-23T10:39:53.010Z,18.41
2018-06-23T10:40:52.992Z,18.84
2018-06-23T10:41:52.989Z,19.18
2018-06-23T10:42:52.978Z,19.56
2018-06-23T10:43:52.964Z,20.11
2018-06-23T10:44:52.950Z,20.62
2018-06-23T10:45:52.946Z,20.92
2018-06-23T10:46:52.938Z,20.81
2018-06-23T10:47:52.925Z,20.93
2018-06-23T10:48:52.915Z,20.51
2018-06-23T10:49:52.898Z,20.25
2018-06-23T10:50:52.889Z,20.24
2018-06-23T10:51:52.879Z,19.94
2018-06-23T10:52:52.867Z,19.96
2018-06-23T10:53:52.865Z,19.88
2018-06-23T10:54:52.855Z,19.89
2018-06-23T10:55:52.840Z,19.77
2018-06-23T10:56:52.832Z,20.07
2018-06-23T10:57:52.928Z,20.40
2018-06-23T10:58:52.805Z,21.15
2018-06-23T10:59:52.799Z,21.43
2018-06-23T11:00:52.790Z,22.06
2018-06-23T11:01:52.773Z,22.45
2018-06-23T11:02:52.766Z,22.39
2018-06-23T11:03:52.754Z,22.41
2018-06-23T11:04:52.877Z,22.15
2018-06-23T11:05:52.741Z,21.89
2018-06-23T11:06:52.725Z,21.50
2018-06-23T11:07:52.717Z,21.29
2018-06-23T11:08:52.708Z,20.92
2018-06-23T11:09:52.688Z,20.66
2018-06-23T11:10:52.680Z,20.65
2018-06-23T11:11:52.670Z,20.47
2018-06-23T11:12:52.663Z,20.36
2018-06-23T11:13:52.654Z,20.36
2018-06-23T11:14:52.642Z,20.00
2018-06-23T11:15:52.631Z,19.86
2018-06-23T11:16:52.616Z,19.85
2018-06-23T11:17:52.615Z,20.06
2018-06-23T11:18:52.599Z,20.70
2018-06-23T11:19:52.588Z,20.87
2018-06-23T11:20:52.581Z,21.66
2018-06-23T11:21:52.585Z,22.10
2018-06-23T11:22:52.556Z,22.57
2018-06-23T11:23:52.545Z,22.17
2018-06-23T11:24:52.532Z,22.10
2018-06-23T11:25:52.544Z,21.51
2018-06-23T11:26:52.546Z,21.12
2018-06-23T11:27:52.507Z,20.67
2018-06-23T11:28:52.498Z,20.37
2018-06-23T11:29:52.481Z,20.25
2018-06-23T11:30:52.476Z,20.03
2018-06-23T11:31:52.466Z,19.77
2018-06-23T11:32:52.457Z,19.49
2018-06-23T11:33:52.440Z,19.14
2018-06-23T11:34:52.435Z,19.02
2018-06-23T11:35:52.421Z,18.88
2018-06-23T11:36:52.408Z,18.70
2018-06-23T11:37:52.406Z,18.53
2018-06-23T11:38:52.391Z,18.50
2018-06-23T11:39:52.381Z,18.41
2018-06-23T11:40:52.372Z,18.33
2018-06-23T11:41:52.355Z,18.07
2018-06-23T11:42:52.351Z,18.05
2018-06-23T11:43:52.338Z,18.23
2018-06-23T11:44:52.324Z,18.25
2018-06-23T11:45:52.320Z,18.38
2018-06-23T11:46:52.305Z,18.65
2018-06-23T11:47:52.294Z,18.83
2018-06-23T11:48:52.278Z,19.15
2018-06-23T11:49:52.276Z,19.34
2018-06-23T11:50:52.265Z,19.64
2018-06-23T11:51:52.251Z,19.94
2018-06-23T11:52:52.244Z,19.94
2018-06-23T11:53:52.224Z,20.06
2018-06-23T11:54:52.218Z,20.07
2018-06-23T11:55:52.207Z,20.13
2018-06-23T11:56:52.194Z,20.16
2018-06-23T11:57:52.195Z,20.14
2018-06-23T11:58:52.181Z,20.21
2018-06-23T11:59:52.166Z,20.13
2018-06-23T12:00:52.163Z,20.07
2018-06-23T12:01:52.153Z,20.11
2018-06-23T12:02:52.135Z,19.91
2018-06-23T12:03:52.126Z,19.71
2018-06-23T12:04:52.116Z,19.39
2018-06-23T12:05:52.102Z,19.02
2018-06-23T12:06:52.091Z,18.93
2018-06-23T12:07:52.083Z,18.83
2018-06-23T12:08:52.068Z,18.95
2018-06-23T12:09:52.075Z,18.98
2018-06-23T12:10:52.051Z,18.90
2018-06-23T12:11:52.050Z,18.81
2018-06-23T12:12:52.034Z,18.77
2018-06-23T12:13:52.025Z,18.56
2018-06-23T12:14:52.011Z,18.84
2018-06-23T12:15:51.996Z,18.92
2018-06-23T12:16:51.990Z,19.04
2018-06-23T12:17:52.019Z,19.30
2018-06-23T12:18:51.961Z,19.56
2018-06-23T12:19:51.953Z,19.76
2018-06-23T12:20:51.945Z,20.16
2018-06-23T12:21:51.926Z,20.37
2018-06-23T12:22:51.920Z,20.37
2018-06-23T12:23:51.908Z,20.51
2018-06-23T12:24:51.895Z,21.09
2018-06-23T12:25:51.892Z,21.14
2018-06-23T12:26:51.880Z,20.77
2018-06-23T12:27:51.870Z,20.51
2018-06-23T12:28:51.860Z,20.39
2018-06-23T12:29:51.844Z,20.59
2018-06-23T12:30:51.834Z,20.74
2018-06-23T12:31:51.824Z,21.22
2018-06-23T12:32:51.817Z,21.07
2018-06-23T12:33:51.808Z,21.24
2018-06-23T12:34:51.798Z,21.39
2018-06-23T12:35:51.782Z,21.83
2018-06-23T12:36:51.769Z,22.00
2018-06-23T12:37:51.770Z,21.50
2018-06-23T12:38:51.752Z,20.99
2018-06-23T12:39:51.742Z,20.74
2018-06-23T12:40:51.734Z,20.11
2018-06-23T12:41:51.717Z,19.77
2018-06-23T12:42:51.743Z,19.47
2018-06-23T12:43:51.698Z,19.21
2018-06-23T12:44:51.686Z,19.07
2018-06-23T12:45:51.680Z,18.84
2018-06-23T12:46:51.671Z,18.68
2018-06-23T12:47:51.661Z,18.45
2018-06-23T12:48:51.649Z,18.43
2018-06-23T12:49:51.632Z,18.40
2018-06-23T12:50:51.624Z,18.58
2018-06-23T12:51:51.613Z,18.65
2018-06-23T12:52:51.610Z,18.92
2018-06-23T12:53:51.589Z,19.55
2018-06-23T12:54:51.583Z,21.83